Station: Boolgeeda  

  Atmospheric Gas Attenuation - ITU Rec 676-11   ----------------- dB/100km -----------------
Date Time Temp RH % AH g/m3 Dew Point Wind Direction Speed kph Gust kph Barometer mB Rainfall Since 9am 24GHz 47GHz 76GHz 122GHz 134GHz 241GHz
11/05 05:10 11.9 30 3.18 -5 2 4 1020.3 0 8.2 18.6 21.0 54.0 35.0 115.4
11/05 05:00 11.6 32 3.33 -4.5 2 6 1017.8 0 8.5 18.8 21.5 55.3 36.7 121.4
11/05 04:50 11.4 31 3.18 -4.9 2 2 1020.3 0 8.2 18.7 21.1 54.3 35.2 116.1
11/05 04:40 11.5 31 3.2 -5.1 2 2 1020.3 0 8.2 18.7 21.1 54.4 35.4 116.8
11/05 04:30 11.5 30 3.1 -5.4 2 4 1017.8 0 8.0 18.5 20.7 53.3 34.2 112.6
11/05 04:20 12 29 3.09 -5.2 4 4 1020.1 0 8.0 18.4 20.6 53.1 34.0 111.8
11/05 04:10 12.4 29 3.17 -4.9 2 2 1020 0 8.1 18.5 20.8 53.5 34.6 114.3
11/05 04:00 12.7 28 3.12 -5.3 2 6 1017.6 0 8.0 18.3 20.5 52.7 33.9 111.8
11/05 03:50 12.7 28 3.12 -5.3 2 2 1019.9 0 8.0 18.3 20.6 52.9 34.0 112.0
11/05 03:40 13.3 27 3.12 -5.2 2 4 1019.8 0 8.0 18.2 20.4 52.5 33.7 111.2
11/05 03:30 13.8 27 3.22 -4.8 4 6 1017.8 0 8.2 18.2 20.5 52.9 34.5 114.1
11/05 03:19 14.1 26 3.16 -5.1 7 7 1019.7 0 8.1 18.1 20.3 52.3 33.8 111.6
11/05 03:09 14.3 25 3.07 -5.2 9 9 1019.6 0 7.9 18.0 20.0 51.4 32.8 108.0
11/05 03:00 14.6 25 3.13 -5.2 9 13 1017.8 0 8.0 17.9 20.1 51.6 33.2 109.6
11/05 02:50 15 25 3.21 -4.9 13 13 1019.5 0 8.2 18.0 20.3 52.2 34.0 112.2
11/05 02:40 15 25 3.21 -5 13 13 1019.6 0 8.2 18.0 20.3 52.2 34.0 112.3
11/05 02:30 15.5 24 3.17 -5 11 13 1018 0 8.1 17.8 20.0 51.4 33.3 110.0
11/05 02:19 15.6 23 3.06 -5.1 11 13 1019.6 0 7.8 17.7 19.7 50.5 32.2 106.0
11/05 02:10 15.2 24 3.12 -5.3 11 13 1019.8 0 8.0 17.9 20.0 51.3 33.0 108.7
11/05 02:00 14.5 25 3.11 -5.3 9 11 1018.2 0 8.0 17.9 20.0 51.5 33.1 109.1
11/05 01:49 14.5 24 2.99 -5.8 9 9 1020.2 0 7.7 17.8 19.7 50.7 31.9 104.8
11/05 01:40 14.4 24 2.97 -5.8 7 9 1020.2 0 7.7 17.8 19.7 50.5 31.7 104.2
11/05 01:30 14.5 24 2.99 -5.8 4 6 1018.4 0 7.7 17.8 19.7 50.5 31.8 104.7
11/05 01:20 15 22 2.82 -6.2 6 7 1020.1 0 7.3 17.5 19.1 48.9 29.9 98.0
11/05 01:10 15.4 22 2.89 -6 7 9 1020 0 7.5 17.5 19.2 49.3 30.5 100.1
11/05 01:00 15.6 22 2.93 -6 7 11 1018.3 0 7.5 17.5 19.2 49.4 30.8 101.1
11/05 00:50 15.9 21 2.84 -6 9 11 1019.8 0 7.4 17.4 18.9 48.5 29.8 97.7
11/05 00:40 16 21 2.86 -5.9 11 11 1019.9 0 7.4 17.4 19.0 48.7 30.0 98.3
11/05 00:30 16.3 21 2.91 -6 9 11 1018.4 0 7.5 17.3 19.0 48.8 30.3 99.6
11/05 00:19 16.5 21 2.95 -6 11 11 1019.9 0 7.6 17.4 19.1 49.1 30.7 100.9
11/05 00:10 16.9 20 2.88 -5.9 13 13 1019.9 0 7.4 17.2 18.8 48.3 29.9 97.9
11/05 00:00 17.1 20 2.91 -6 11 13 1018.7 0 7.5 17.2 18.8 48.3 30.0 98.7
10/05 23:49 17.5 19 2.83 -6 11 13 1019.9 0 7.3 17.1 18.5 47.5 29.1 95.5
10/05 23:40 17.8 19 2.88 -5.9 11 13 1020 0 7.4 17.1 18.6 47.8 29.5 96.9
10/05 23:30 17.9 19 2.9 -6 11 15 1019.1 0 7.4 17.1 18.6 47.8 29.7 97.4
10/05 23:20 17.8 19 2.88 -6 11 13 1020.1 0 7.4 17.1 18.6 47.8 29.5 96.9
10/05 23:10 17.7 18 2.72 -6.5 11 11 1020.2 0 7.1 16.9 18.2 46.6 28.0 91.4
10/05 23:00 18.2 18 2.8 -6.5 13 15 1019.2 0 7.2 16.9 18.3 46.9 28.6 93.6
10/05 22:49 18.7 17 2.72 -6.6 15 17 1020 0 7.0 16.7 18.0 46.0 27.6 90.3
10/05 22:40 18.7 17 2.72 -6.8 15 19 1020 0 7.0 16.7 18.0 46.0 27.6 90.3
10/05 22:30 18.8 17 2.74 -6.7 15 20 1019.1 0 7.1 16.7 18.0 46.1 27.8 90.8
10/05 22:20 18.9 16 2.59 -7.2 15 19 1019.9 0 6.8 16.5 17.5 44.9 26.3 85.6
10/05 22:10 18.9 16 2.59 -7.4 17 19 1019.8 0 6.8 16.5 17.5 44.9 26.3 85.6
10/05 22:00 18.7 16 2.56 -7.6 15 19 1019.1 0 6.7 16.5 17.5 44.7 26.1 84.7
10/05 21:50 18.5 16 2.53 -7.4 13 17 1019.9 0 6.7 16.5 17.4 44.6 25.8 84.0
10/05 21:40 18.2 17 2.64 -7.4 11 13 1020.1 0 6.9 16.7 17.8 45.6 27.0 88.1
10/05 21:30 18.2 17 2.64 -7.2 11 13 1019.1 0 6.9 16.7 17.8 45.6 27.0 88.0
10/05 21:20 18.2 17 2.64 -7.3 11 13 1019.9 0 6.9 16.7 17.8 45.6 27.0 88.1
10/05 21:10 18.7 16 2.56 -7.2 11 13 1019.7 0 6.7 16.5 17.5 44.7 26.1 84.8
10/05 21:00 18.6 17 2.71 -6.9 9 15 1018.7 0 7.0 16.7 17.9 45.9 27.5 90.0
10/05 20:50 18.8 16 2.58 -7.3 9 11 1019.5 0 6.7 16.5 17.5 44.8 26.2 85.4
10/05 20:40 19.1 16 2.62 -7.4 13 13 1019.3 0 6.8 16.5 17.6 45.0 26.5 86.4
10/05 20:30 19.4 16 2.67 -7 11 15 1018.4 0 6.9 16.5 17.6 45.1 26.9 87.8
10/05 20:20 19.6 15 2.53 -7.5 11 13 1018.9 0 6.6 16.3 17.2 44.0 25.5 82.8
10/05 20:10 19.7 15 2.55 -7.6 13 15 1018.8 0 6.7 16.3 17.2 44.1 25.6 83.4
10/05 20:00 19.9 15 2.58 -7.5 13 17 1018 0 6.7 16.3 17.3 44.1 25.8 84.2
10/05 19:49 19.9 14 2.41 -7.8 11 13 1018.5 0 6.4 16.1 16.8 42.9 24.2 78.5
10/05 19:40 19.8 15 2.56 -7.8 11 13 1018.4 0 6.7 16.3 17.2 44.1 25.7 83.6
10/05 19:30 20.2 14 2.45 -8.1 9 11 1017.8 0 6.4 16.1 16.8 43.0 24.5 79.5
10/05 19:20 20.5 14 2.49 -7.9 7 9 1018.1 0 6.5 16.1 16.9 43.1 24.8 80.6
10/05 19:10 20.5 14 2.49 -7.8 9 11 1017.9 0 6.5 16.1 16.9 43.1 24.8 80.5
10/05 19:00 21.1 14 2.58 -7.4 7 11 1017.3 0 6.7 16.1 17.0 43.5 25.5 82.9
10/05 18:50 21.1 13 2.4 -7.9 6 7 1017.3 0 6.3 15.9 16.5 42.1 23.8 77.0
10/05 18:40 21.3 13 2.42 -7.8 7 9 1017.2 0 6.4 15.9 16.5 42.2 23.9 77.4
10/05 18:30 21.7 13 2.48 -7.9 7 11 1016.8 0 6.5 15.9 16.6 42.4 24.3 79.0
10/05 18:19 21.8 13 2.49 -7.6 9 11 1016.8 0 6.5 15.9 16.6 42.4 24.4 79.3
10/05 18:10 22.3 13 2.57 -7.7 9 11 1016.6 0 6.6 15.9 16.7 42.8 25.0 81.4
10/05 18:00 22.9 13 2.66 -6.9 11 15 1016.5 0 6.8 15.9 16.8 43.1 25.6 83.8
10/05 17:50 23.2 12 2.49 -7.2 9 13 1016.2 0 6.5 15.6 16.3 41.7 24.0 77.9
10/05 17:40 23.9 12 2.6 -7.1 7 11 1015.9 0 6.7 15.6 16.5 42.1 24.8 80.8
10/05 17:30 24.2 12 2.64 -7 13 19 1016.2 0 6.8 15.6 16.5 42.3 25.1 81.9
10/05 17:20 24.7 11 2.49 -7 17 20 1015.5 0 6.4 15.4 16.0 40.9 23.5 76.6
10/05 17:09 24.7 11 2.49 -7 15 17 1015.4 0 6.4 15.3 16.0 40.9 23.5 76.5
10/05 17:00 25 12 2.76 -6.3 13 20 1015.9 0 7.0 15.6 16.7 42.8 25.9 84.9
10/05 16:49 25.2 11 2.56 -6.7 13 17 1015.1 0 6.6 15.3 16.1 41.2 24.0 78.3
10/05 16:40 25.5 11 2.6 -6.8 19 24 1014.9 0 6.6 15.3 16.1 41.3 24.3 79.3
10/05 16:30 25.3 11 2.58 -7.2 13 24 1015.5 0 6.6 15.4 16.1 41.3 24.2 78.9
10/05 16:20 25.6 11 2.62 -7.2 11 13 1014.8 0 6.7 15.3 16.2 41.4 24.4 79.8
10/05 16:10 25.5 11 2.6 -7.4 13 15 1014.8 0 6.6 15.3 16.1 41.3 24.3 79.3
10/05 16:00 25.1 12 2.78 -6.3 13 22 1015.4 0 7.0 15.6 16.7 42.8 26.0 85.4
10/05 15:50 25.8 11 2.65 -6.6 15 22 1014.7 0 6.7 15.3 16.2 41.5 24.7 80.6
10/05 15:40 25.5 11 2.6 -6.8 11 13 1014.7 0 6.6 15.3 16.1 41.3 24.3 79.3
10/05 15:30 25.5 12 2.84 -6 13 22 1015.4 0 7.1 15.6 16.8 43.1 26.5 87.0
10/05 15:20 25.7 12 2.87 -5.4 19 22 1014.8 0 7.2 15.6 16.8 43.2 26.7 87.7
10/05 15:10 25.8 12 2.89 -5.4 17 19 1014.7 0 7.2 15.6 16.9 43.2 26.8 88.2
10/05 15:00 25.1 13 3.01 -5.2 7 19 1015.5 0 7.5 15.9 17.4 44.5 28.1 92.8
10/05 14:50 24.8 13 2.96 -4.9 6 9 1015 0 7.4 15.8 17.3 44.3 27.8 91.5
10/05 14:39 25.3 13 3.04 -4.6 15 19 1015 0 7.5 15.9 17.4 44.6 28.3 93.6
10/05 14:30 25.6 13 3.09 -4.8 13 22 1015.6 0 7.6 15.9 17.5 44.9 28.7 94.9
10/05 14:20 24.9 14 3.2 -4.3 9 13 1015.2 0 7.9 16.1 17.9 46.0 30.0 99.2
10/05 14:10 24.8 14 3.19 -4.4 4 6 1015.3 0 7.9 16.1 17.9 46.0 29.9 99.0
10/05 14:00 25 14 3.22 -4.3 11 22 1015.9 0 7.9 16.1 18.0 46.2 30.1 99.8
10/05 13:50 25 14 3.22 -3.9 7 11 1015.4 0 7.9 16.1 18.0 46.1 30.1 99.8
10/05 13:40 24.8 15 3.41 -3.5 13 17 1015.5 0 8.3 16.4 18.5 47.7 32.0 106.3
10/05 13:30 24.3 16 3.54 -3.1 9 19 1016.1 0 8.6 16.6 19.0 49.0 33.4 111.3
10/05 13:20 24.1 16 3.5 -3.3 9 13 1015.8 0 8.5 16.6 18.9 48.8 33.1 110.2
10/05 13:10 24 15 3.26 -3.7 9 11 1016 0 8.0 16.4 18.3 47.0 30.9 102.3
10/05 13:00 24.1 16 3.5 -3.3 7 17 1016.6 0 8.5 16.6 19.0 48.8 33.1 110.2
10/05 12:50 24.1 15 3.28 -3.8 13 17 1016.3 0 8.1 16.4 18.3 47.1 31.0 102.9
10/05 12:40 23.6 17 3.62 -2.3 7 11 1016.6 0 8.8 16.9 19.4 50.0 34.4 114.9

Last Refresh: 11-May-2026 06:49:12

Bureau of Meteorology